Airfield :
LOGIN :

Register | Disclaimer

   EN    FR    IT 

 










Legend :    VFR   Marginal VFR   IFR   Intensive IFR   Very Intensive IFR
Visi :
Ceiling :
>= 8 km
>= 3000ft
5 to 8 km
1000 to 3000 ft
1500m to 5 km
500 to 1000 ft
800 to 1500m
200 to 500 ft
< 800m
< 200 ft
Symbols :   Thunderstorms  Fog  Heavy snow  Heavy precipitations  Wind > 20 kt
SIGMETs :     Misc.  Thunderstorms  Icing  Turbulence  Mountain Waves  Volcanic Ashes






- Airport Elevation : 302 ft
- IATA code : MAH


LEMH - Menorca

CURRENT METAR :
  • 280730Z 18007KT 160V220 9999 FEW030 BKN049 15/10 Q1014

EXPIRED METARs :
  • 280700Z 18009KT 160V220 9999 FEW025 SCT033 15/10 Q1014
  • 280630Z 21007KT 180V250 9999 FEW025 SCT033 15/10 Q1015
  • 280600Z 22007KT 170V250 9999 FEW028 SCT035 15/09 Q1015
  • 280530Z 21008KT 180V240 9999 SCT030 15/10 Q1015
  • 280500Z 20009KT 170V230 9999 FEW028 14/10 Q1015

TAF AMD TAF LEMH
Valid from the 28 at 07:00 until the 29 at 03:00 UTC


280704Z 2807/2903 20010KT 9999 FEW020 TX17/2812Z TN10/2807Z
BECMG 2810/2812 35012KT
TEMPO 2811/2815 30015G32KT
TEMPO 2810/2818 3000 TSRA SCT020CB
TEMPO 2815/2821 35025G40KT



MET'MAP, your aeronautical weather chart ! - Copyright ORBIFLY December 2007 - Disclaimer

ORBIFLY MET'MAP TEAM :

Programming & Development : Alexandra Zaïnal
Original concept : Baudouin d'Aumeries
Technical & hardware support : Manuel Goepfert
Assistance : Marc-Olivier Méhu




SOURCES & CREDITS :

   NOAA